Time;durP1;ratioP1;P1;durP2;ratioP2;P2;SDS_P1;SDS_P2;PMS_P1;PMS_P2;Temp;Humidity;BMP_temperature;BMP_pressure;BME280_temperature;BME280_humidity;BME280_pressure;Samples;Min_cycle;Max_cycle;Signal;HPM_P1;HPM_P2
2022/11/02 00:03:44;;;;;;;3.63;0.60;;;;;;;8.92;75.69;99388.81;5100238;27;20388;-55
2022/11/02 00:06:11;;;;;;;1.27;0.65;;;;;;;8.94;75.88;99394.78;5081663;27;20450;-56
2022/11/02 00:08:39;;;;;;;4.18;0.73;;;;;;;8.96;75.44;99396.53;5077755;27;20052;-56
2022/11/02 00:11:06;;;;;;;3.47;0.25;;;;;;;8.98;76.00;99412.84;5077157;28;20067;-55
2022/11/02 00:13:34;;;;;;;2.08;0.40;;;;;;;8.95;76.56;99415.47;5077349;28;20555;-58
2022/11/02 00:16:09;;;;;;;3.10;0.50;;;;;;;8.94;75.85;99418.91;5077980;28;20052;-54
2022/11/02 00:18:37;;;;;;;0.82;0.47;;;;;;;8.96;76.30;99431.81;5058797;28;20676;-54
2022/11/02 00:21:04;;;;;;;5.93;0.82;;;;;;;8.98;76.25;99438.69;5055428;28;20067;-56
2022/11/02 00:23:31;;;;;;;5.88;0.70;;;;;;;9.03;76.06;99437.78;5066233;28;20109;-53
2022/11/02 00:26:00;;;;;;;3.00;0.50;;;;;;;9.08;75.54;99451.53;5078840;28;20079;-54
2022/11/02 00:28:29;;;;;;;1.27;0.73;;;;;;;9.12;76.10;99453.25;5077839;27;20045;-56
2022/11/02 00:30:55;;;;;;;1.85;0.57;;;;;;;9.09;76.33;99456.69;5078229;28;20048;-57
2022/11/02 00:33:22;;;;;;;6.60;1.38;;;;;;;9.13;75.59;99454.97;5078846;28;20043;-53
2022/11/02 00:35:49;;;;;;;3.85;1.33;;;;;;;9.11;76.01;99456.69;5078134;28;20044;-56
2022/11/02 00:38:15;;;;;;;1.55;0.80;;;;;;;9.09;75.53;99479.94;5074040;28;20163;-53
2022/11/02 00:40:42;;;;;;;1.77;0.75;;;;;;;9.06;75.70;99473.94;5064606;28;20497;-52
2022/11/02 00:43:08;;;;;;;1.98;0.65;;;;;;;9.04;75.58;99480.84;5078643;28;20164;-55
2022/11/02 00:45:35;;;;;;;3.67;0.73;;;;;;;8.98;76.00;99477.44;5076313;28;20077;-55
2022/11/02 00:48:02;;;;;;;3.95;0.80;;;;;;;8.96;75.84;99494.69;5074742;28;20048;-57
2022/11/02 00:50:29;;;;;;;2.33;1.20;;;;;;;8.95;75.61;99500.69;5072818;28;20056;-52
2022/11/02 00:52:56;;;;;;;2.58;0.70;;;;;;;8.90;76.40;99510.19;5073981;28;20080;-54
2022/11/02 00:55:23;;;;;;;0.95;0.40;;;;;;;8.92;75.52;99516.19;5070930;28;20044;-52
2022/11/02 00:57:49;;;;;;;1.30;0.65;;;;;;;8.89;75.70;99520.53;5074253;28;20123;-54
2022/11/02 01:00:16;;;;;;;2.92;0.50;;;;;;;8.85;75.67;99530.88;5076229;28;20079;-53
2022/11/02 01:02:43;;;;;;;1.85;0.80;;;;;;;8.83;75.72;99529.16;5076817;28;20060;-55
2022/11/02 01:05:10;;;;;;;0.90;0.73;;;;;;;8.82;76.36;99538.63;5068425;28;20052;-55
2022/11/02 01:07:38;;;;;;;3.15;0.55;;;;;;;8.81;75.63;99543.81;5059304;28;20052;-53
2022/11/02 01:10:06;;;;;;;1.35;0.20;;;;;;;8.79;75.86;99555.88;5071636;28;20098;-51
2022/11/02 01:12:36;;;;;;;1.05;0.45;;;;;;;8.79;75.62;99561.03;5075121;28;20098;-54
2022/11/02 01:15:04;;;;;;;1.52;0.55;;;;;;;8.77;75.38;99565.31;5060648;28;20094;-54
2022/11/02 01:17:31;;;;;;;1.40;0.38;;;;;;;8.75;76.30;99573.09;5060864;28;20500;-55
2022/11/02 01:19:58;;;;;;;0.95;0.85;;;;;;;8.73;75.75;99570.53;5060545;28;20048;-57
2022/11/02 01:22:24;;;;;;;4.05;0.50;;;;;;;8.71;75.58;99577.41;5059415;28;20430;-51
2022/11/02 01:24:51;;;;;;;3.28;1.30;;;;;;;8.72;75.88;99588.59;5061058;28;20067;-54
2022/11/02 01:27:17;;;;;;;5.10;0.73;;;;;;;8.71;75.50;99602.34;5063654;28;20185;-56
2022/11/02 01:29:44;;;;;;;0.77;0.43;;;;;;;8.70;75.59;99598.91;5060001;28;20057;-55
2022/11/02 01:32:11;;;;;;;3.10;0.57;;;;;;;8.69;75.62;99604.09;5053930;28;20140;-53
2022/11/02 01:34:37;;;;;;;2.30;0.68;;;;;;;8.67;75.24;99616.13;5046066;28;20510;-51
2022/11/02 01:37:04;;;;;;;2.08;0.77;;;;;;;8.65;74.94;99617.88;5062332;28;20041;-52
2022/11/02 01:39:30;;;;;;;3.30;1.00;;;;;;;8.63;75.40;99623.03;5040477;28;20162;-52
2022/11/02 01:41:57;;;;;;;1.42;0.55;;;;;;;8.62;75.43;99631.66;5038595;28;20053;-51
2022/11/02 01:44:32;;;;;;;1.13;0.52;;;;;;;8.60;75.62;99630.78;5048172;28;20054;-54
2022/11/02 01:47:03;;;;;;;2.42;0.73;;;;;;;8.60;75.82;99625.59;5051538;28;20048;-55
2022/11/02 01:49:34;;;;;;;1.15;0.73;;;;;;;8.58;75.41;99637.69;5040501;28;20056;-52
2022/11/02 01:52:22;;;;;;;2.50;0.63;;;;;;;8.49;75.78;99654.84;5057770;28;20155;-55
2022/11/02 01:55:18;;;;;;;3.15;0.52;;;;;;;8.47;75.51;99656.56;5042436;28;20484;-52
2022/11/02 01:57:50;;;;;;;1.13;0.77;;;;;;;8.48;75.39;99660.88;5057012;28;20106;-52
2022/11/02 02:00:17;;;;;;;3.28;0.93;;;;;;;8.47;75.75;99666.03;5058720;28;20047;-51
2022/11/02 02:05:25;;;;;;;4.38;0.38;;;;;;;8.45;75.60;99671.19;5021535;28;20402;-51
2022/11/02 02:07:53;;;;;;;2.58;0.52;;;;;;;8.44;75.60;99678.94;5028236;28;20076;-49
2022/11/02 02:10:20;;;;;;;2.63;0.55;;;;;;;8.41;75.71;99666.88;4998070;28;20605;-55
2022/11/02 02:12:47;;;;;;;2.40;0.45;;;;;;;8.40;75.56;99678.06;4999798;28;20167;-52
2022/11/02 02:15:14;;;;;;;2.17;0.30;;;;;;;8.42;75.90;99675.50;4995588;28;20062;-54
2022/11/02 02:31:36;;;;;;;1.92;1.67;;;;;;;8.35;75.14;99719.34;5117850;27;20504;-53
2022/11/02 02:39:25;;;;;;;5.50;1.02;;;;;;;8.38;75.19;99728.84;5029196;28;20410;-53
2022/11/02 02:42:00;;;;;;;3.00;0.25;;;;;;;8.35;75.01;99726.25;4999492;28;20074;-51
2022/11/02 02:44:32;;;;;;;2.33;0.63;;;;;;;8.35;75.49;99734.00;5001373;28;20133;-56
2022/11/02 02:47:04;;;;;;;4.43;0.70;;;;;;;8.33;75.41;99736.56;5002504;28;20046;-54
2022/11/02 02:49:39;;;;;;;1.92;0.77;;;;;;;8.33;75.54;99746.03;5002798;28;20096;-55
2022/11/02 02:52:07;;;;;;;7.90;1.13;;;;;;;8.33;75.61;99733.13;4996662;28;20486;-51
2022/11/02 02:54:40;;;;;;;5.13;1.10;;;;;;;8.30;75.90;99746.88;4997226;28;20557;-56
2022/11/02 02:57:10;;;;;;;5.68;1.05;;;;;;;8.29;75.46;99749.47;4997990;28;20082;-52
2022/11/02 02:59:42;;;;;;;4.15;0.73;;;;;;;8.28;75.38;99758.91;4996185;28;20069;-49
2022/11/02 03:02:18;;;;;;;4.57;0.75;;;;;;;8.29;76.02;99749.47;4996135;28;20065;-54
2022/11/02 03:04:45;;;;;;;6.63;0.60;;;;;;;8.29;75.74;99744.28;4998745;28;20058;-53
2022/11/02 03:07:18;;;;;;;4.03;0.40;;;;;;;8.28;75.51;99747.75;4996086;28;20073;-52
2022/11/02 03:09:53;;;;;;;5.25;0.95;;;;;;;8.26;74.88;99752.03;4995147;28;20142;-54
2022/11/02 03:20:39;;;;;;;2.95;1.40;;;;;;;8.13;74.71;99775.22;5037122;28;20386;-55
2022/11/02 03:23:17;;;;;;;4.63;0.90;;;;;;;8.10;75.02;99785.53;5019679;28;20092;-53
2022/11/02 03:31:42;;;;;;;3.13;0.65;;;;;;;7.98;75.94;99792.38;5040494;28;20392;-54
2022/11/02 03:40:01;;;;;;;3.92;0.40;;;;;;;7.90;75.48;99799.22;5017499;28;21149;-54
2022/11/02 03:42:32;;;;;;;3.63;0.50;;;;;;;7.93;75.41;99803.50;5018587;28;20049;-54
2022/11/02 03:45:06;;;;;;;1.63;0.50;;;;;;;7.90;75.32;99809.53;5014456;28;20148;-53
2022/11/02 03:47:35;;;;;;;1.77;0.68;;;;;;;7.87;76.25;99824.13;5020051;28;20085;-53
2022/11/02 03:50:05;;;;;;;1.45;0.55;;;;;;;7.85;76.12;99821.53;5018780;28;20145;-54
2022/11/02 03:52:35;;;;;;;2.03;0.60;;;;;;;7.82;75.74;99829.25;5017862;28;20099;-50
2022/11/02 03:55:07;;;;;;;5.03;0.63;;;;;;;7.80;75.88;99828.41;5032483;28;20812;-55
2022/11/02 03:57:51;;;;;;;2.70;0.60;;;;;;;7.75;76.06;99825.78;5013784;28;20152;-52
2022/11/02 04:00:21;;;;;;;5.18;0.63;;;;;;;7.76;76.25;99826.63;5020208;28;20049;-53
2022/11/02 04:02:55;;;;;;;3.45;0.30;;;;;;;7.74;75.17;99824.09;5010576;28;20064;-55
2022/11/02 04:05:37;;;;;;;6.00;0.38;;;;;;;7.67;74.98;99828.31;5013505;28;20166;-54
2022/11/02 04:08:19;;;;;;;2.35;0.28;;;;;;;7.69;75.51;99842.09;5017193;28;20141;-53
2022/11/02 04:16:22;;;;;;;2.10;0.65;;;;;;;7.63;75.76;99851.50;4996382;28;20046;-52
2022/11/02 04:25:14;;;;;;;2.53;0.52;;;;;;;7.59;75.48;99853.19;5029201;28;20050;-52
2022/11/02 04:27:14;;;;;;;3.17;0.70;;;;;;;7.55;75.34;99874.66;5016692;28;20151;-51
2022/11/02 04:29:46;;;;;;;3.53;0.40;;;;;;;7.53;75.93;99866.06;5018008;28;20052;-51
2022/11/02 04:32:13;;;;;;;3.50;0.35;;;;;;;7.52;75.16;99879.78;5016374;28;20050;-51
2022/11/02 04:34:39;;;;;;;1.88;0.40;;;;;;;7.51;75.84;99890.94;5017820;28;20056;-52
2022/11/02 04:38:39;;;;;;;3.63;0.60;;;;;;;7.46;75.56;99891.78;5013848;28;20057;-53
2022/11/02 04:39:52;;;;;;;0.90;0.35;;;;;;;7.44;74.78;99898.63;5017982;28;20045;-51
2022/11/02 04:42:19;;;;;;;2.78;0.40;;;;;;;7.43;75.32;99896.91;5018361;28;20510;-49
2022/11/02 04:44:46;;;;;;;3.05;0.65;;;;;;;7.42;75.35;99894.31;5019681;28;20049;-49
2022/11/02 04:47:13;;;;;;;6.03;0.45;;;;;;;7.41;74.38;99898.63;5019054;28;21772;-54
2022/11/02 04:49:39;;;;;;;2.00;0.40;;;;;;;7.39;75.99;99891.69;5010387;28;20072;-54
2022/11/02 04:52:06;;;;;;;1.10;0.30;;;;;;;7.37;75.61;99890.84;5008349;28;20060;-54
2022/11/02 04:54:32;;;;;;;3.60;0.40;;;;;;;7.36;74.75;99895.13;5007164;28;20054;-51
2022/11/02 04:56:59;;;;;;;5.38;0.93;;;;;;;7.34;74.05;99902.00;5004450;28;20140;-54
2022/11/02 04:59:26;;;;;;;1.83;0.50;;;;;;;7.33;74.83;99900.28;5006697;28;20530;-52
2022/11/02 05:01:52;;;;;;;1.92;0.35;;;;;;;7.30;74.54;99897.66;5002428;28;20077;-52
2022/11/02 05:04:19;;;;;;;2.20;0.73;;;;;;;7.29;74.26;99911.38;5003761;28;20108;-51
2022/11/02 05:06:45;;;;;;;4.63;0.30;;;;;;;7.26;74.55;99913.94;5005888;28;20133;-55
2022/11/02 05:09:12;;;;;;;3.55;0.43;;;;;;;7.23;74.18;99907.03;5005894;28;20045;-52
2022/11/02 05:11:39;;;;;;;0.95;0.25;;;;;;;7.17;74.39;99910.41;5001646;28;20092;-52
2022/11/02 05:14:05;;;;;;;5.32;0.75;;;;;;;7.17;75.80;99925.88;4999294;28;20066;-51
2022/11/02 05:16:32;;;;;;;0.70;0.55;;;;;;;7.15;75.24;99935.31;4997545;28;20077;-52
2022/11/02 05:18:58;;;;;;;4.30;0.50;;;;;;;7.13;75.02;99942.16;5004092;28;20050;-54
2022/11/02 05:21:25;;;;;;;1.42;0.20;;;;;;;7.12;74.44;99937.84;4997060;28;20085;-52
2022/11/02 05:23:52;;;;;;;4.82;0.55;;;;;;;7.10;74.84;99936.13;5002987;28;20047;-49
2022/11/02 05:26:18;;;;;;;1.88;0.47;;;;;;;7.05;75.30;99936.94;5000247;28;20080;-55
2022/11/02 05:28:45;;;;;;;3.10;0.50;;;;;;;7.02;74.04;99929.16;5000162;28;20131;-52
2022/11/02 05:31:11;;;;;;;4.75;0.38;;;;;;;7.04;74.16;99929.19;5002659;28;20134;-51
2022/11/02 05:33:38;;;;;;;3.30;0.45;;;;;;;7.03;75.79;99927.47;4999490;28;20048;-53
2022/11/02 05:36:05;;;;;;;4.13;0.63;;;;;;;7.02;75.38;99930.88;4999171;28;20058;-54
2022/11/02 05:38:31;;;;;;;4.38;0.70;;;;;;;7.01;74.08;99934.31;5000581;28;20061;-51
2022/11/02 05:40:58;;;;;;;2.53;0.68;;;;;;;7.01;75.98;99931.72;5002183;28;20121;-52
2022/11/02 05:43:25;;;;;;;7.18;0.50;;;;;;;7.03;75.47;99930.06;5000608;28;20141;-51
2022/11/02 05:45:55;;;;;;;3.00;0.40;;;;;;;7.04;74.93;99930.06;5001618;28;20112;-53
2022/11/02 05:48:22;;;;;;;3.47;0.50;;;;;;;7.03;75.16;99928.31;4998891;28;20133;-51
2022/11/02 05:50:54;;;;;;;4.03;0.30;;;;;;;7.02;74.62;99930.88;5002234;28;20136;-53
2022/11/02 05:53:21;;;;;;;1.85;0.40;;;;;;;7.01;75.98;99924.00;5002665;28;20042;-53
2022/11/02 05:55:48;;;;;;;2.05;0.50;;;;;;;6.98;75.19;99932.56;5003309;28;20050;-55
2022/11/02 05:58:14;;;;;;;2.45;0.77;;;;;;;6.98;74.65;99936.84;5002606;28;20601;-52
2022/11/02 06:00:41;;;;;;;6.80;1.08;;;;;;;6.99;75.76;99946.31;4999059;28;20089;-52
2022/11/02 06:03:08;;;;;;;5.18;0.73;;;;;;;6.99;75.56;99933.44;4999275;28;20161;-52
2022/11/02 06:05:34;;;;;;;4.32;0.52;;;;;;;6.99;75.42;99936.03;5001613;28;20054;-56
2022/11/02 06:08:01;;;;;;;2.95;0.68;;;;;;;6.99;75.87;99933.44;5003903;28;20041;-50
2022/11/02 06:10:30;;;;;;;6.45;0.68;;;;;;;6.98;75.72;99930.00;4999617;28;20141;-54
2022/11/02 06:12:58;;;;;;;5.60;0.75;;;;;;;7.00;76.01;99927.44;5002286;28;20038;-52
2022/11/02 06:15:26;;;;;;;7.40;0.40;;;;;;;6.98;74.81;99926.53;5002080;28;20081;-51
2022/11/02 06:17:53;;;;;;;4.13;0.43;;;;;;;6.97;74.83;99923.13;4995946;28;20224;-50
2022/11/02 06:20:20;;;;;;;8.27;1.15;;;;;;;6.94;75.65;99918.81;5001375;28;20093;-54
2022/11/02 06:22:47;;;;;;;5.18;0.60;;;;;;;6.97;75.64;99928.28;5002018;28;20065;-52
2022/11/02 06:25:14;;;;;;;8.80;0.73;;;;;;;6.97;75.62;99922.25;5005201;28;20060;-50
2022/11/02 06:27:48;;;;;;;5.18;0.80;;;;;;;6.98;75.25;99929.13;5004028;28;20129;-51
2022/11/02 06:30:15;;;;;;;3.40;0.52;;;;;;;6.97;76.18;99927.41;5004196;28;20133;-51
2022/11/02 06:32:46;;;;;;;9.00;0.60;;;;;;;6.97;75.63;99924.81;5000654;28;20140;-53
2022/11/02 06:35:13;;;;;;;2.47;0.63;;;;;;;6.97;75.95;99924.81;5005635;28;20046;-50
2022/11/02 06:37:39;;;;;;;5.05;0.57;;;;;;;6.97;75.68;99927.41;4999269;28;20053;-49
2022/11/02 06:40:06;;;;;;;3.97;0.47;;;;;;;6.99;75.75;99928.28;5003618;28;20046;-53
2022/11/02 06:42:33;;;;;;;2.92;0.50;;;;;;;6.97;76.17;99929.97;5006868;28;20049;-50
2022/11/02 06:45:10;;;;;;;5.28;0.80;;;;;;;6.98;76.24;99922.28;5006346;28;20056;-53
2022/11/02 06:47:37;;;;;;;2.67;0.30;;;;;;;7.01;76.26;99924.00;5003536;28;20288;-50
2022/11/02 06:50:05;;;;;;;8.50;0.77;;;;;;;7.01;76.02;99926.59;5003798;28;20404;-49
2022/11/02 06:52:32;;;;;;;7.80;0.93;;;;;;;7.04;76.70;99931.78;5005399;28;20085;-54
2022/11/02 06:54:58;;;;;;;5.93;0.60;;;;;;;7.04;76.52;99929.19;5006612;28;20084;-52
2022/11/02 06:57:25;;;;;;;7.18;0.80;;;;;;;7.07;76.53;99921.50;5002495;28;20049;-53
2022/11/02 06:59:51;;;;;;;6.18;0.90;;;;;;;7.10;76.64;99921.53;5003155;28;20052;-52
2022/11/02 07:02:20;;;;;;;9.27;0.75;;;;;;;7.12;77.26;99922.41;5004922;28;20108;-53
2022/11/02 07:04:48;;;;;;;6.53;1.00;;;;;;;7.14;76.80;99925.88;5004321;28;20062;-52
2022/11/02 07:07:15;;;;;;;2.92;1.02;;;;;;;7.15;77.66;99919.84;5002566;28;20086;-51
2022/11/02 07:09:41;;;;;;;8.85;1.27;;;;;;;7.18;76.39;99908.72;5004996;28;20097;-52
2022/11/02 07:12:08;;;;;;;1.98;0.35;;;;;;;7.22;77.04;99914.78;5002287;28;20138;-55
2022/11/02 07:14:34;;;;;;;8.60;0.60;;;;;;;7.23;76.78;99924.22;5004026;28;20060;-54
2022/11/02 07:17:01;;;;;;;3.67;0.50;;;;;;;7.26;77.16;99919.94;5004033;28;20125;-54
2022/11/02 07:19:27;;;;;;;4.82;1.23;;;;;;;7.30;77.55;99923.44;5002687;28;20060;-53
2022/11/02 07:21:54;;;;;;;5.50;0.70;;;;;;;7.32;77.42;99929.44;5006265;28;20129;-54
2022/11/02 07:24:21;;;;;;;4.63;0.47;;;;;;;7.35;77.15;99926.91;5002593;28;20131;-55
2022/11/02 07:26:49;;;;;;;2.63;0.45;;;;;;;7.41;77.74;99929.53;5002095;28;20129;-54
2022/11/02 07:29:16;;;;;;;3.58;0.52;;;;;;;7.45;76.47;99926.13;5005540;28;20564;-54
2022/11/02 07:31:43;;;;;;;5.43;1.15;;;;;;;7.49;77.98;99933.91;5003465;28;20460;-52
2022/11/02 07:34:11;;;;;;;6.25;1.02;;;;;;;7.57;77.49;99929.66;5004295;28;20541;-56
2022/11/02 07:36:43;;;;;;;4.85;0.70;;;;;;;7.63;77.10;99918.53;4978665;28;20128;-54
2022/11/02 07:39:09;;;;;;;5.22;0.88;;;;;;;7.68;77.00;99937.47;4999677;28;20096;-51
2022/11/02 07:41:36;;;;;;;3.13;0.52;;;;;;;7.88;76.83;99929.88;4991123;28;20056;-48
2022/11/02 07:44:03;;;;;;;3.72;0.68;;;;;;;8.31;77.62;99933.56;4994412;28;20049;-54
2022/11/02 07:46:30;;;;;;;2.88;0.70;;;;;;;8.82;76.41;99941.50;4994046;28;20085;-51
2022/11/02 07:48:56;;;;;;;6.68;0.65;;;;;;;9.42;75.37;99947.63;4995164;28;20128;-51
2022/11/02 07:51:23;;;;;;;2.00;0.40;;;;;;;9.93;74.72;99948.47;4995489;28;20046;-53
2022/11/02 07:53:50;;;;;;;5.50;0.45;;;;;;;10.51;73.31;99947.44;4995234;28;20046;-53
2022/11/02 07:56:17;;;;;;;6.57;1.13;;;;;;;11.12;72.48;99964.44;4995677;28;20050;-51
2022/11/02 07:58:44;;;;;;;3.08;0.60;;;;;;;11.78;71.43;99960.44;4993927;28;20121;-53
2022/11/02 08:01:11;;;;;;;2.00;0.70;;;;;;;12.43;70.09;99963.31;4999096;28;20516;-54
2022/11/02 08:03:37;;;;;;;3.97;0.68;;;;;;;12.80;69.66;99960.22;4994597;28;20077;-54
2022/11/02 08:06:04;;;;;;;3.38;0.70;;;;;;;12.74;68.45;99962.91;4997292;28;20130;-54
2022/11/02 08:08:31;;;;;;;8.07;0.73;;;;;;;12.79;68.63;99968.91;4995793;28;20086;-54
2022/11/02 08:11:05;;;;;;;4.32;0.63;;;;;;;13.03;67.10;99969.44;4995619;28;20062;-51
2022/11/02 08:13:32;;;;;;;7.22;0.95;;;;;;;13.55;66.48;99976.50;4994325;28;20141;-50
2022/11/02 08:15:59;;;;;;;5.13;0.70;;;;;;;13.98;65.38;99975.78;4995215;28;20164;-54
2022/11/02 08:18:27;;;;;;;7.15;0.80;;;;;;;14.26;64.73;99979.63;4996829;28;20509;-54
2022/11/02 08:20:56;;;;;;;5.38;0.98;;;;;;;14.26;64.50;99975.25;4993107;28;20411;-55
2022/11/02 08:23:24;;;;;;;6.50;1.52;;;;;;;14.19;64.74;99973.66;4995081;28;20617;-52
2022/11/02 08:25:53;;;;;;;3.72;0.90;;;;;;;14.23;64.51;99964.91;4996823;28;20133;-51
2022/11/02 08:28:23;;;;;;;4.40;0.52;;;;;;;14.02;64.12;99966.19;4996046;28;20054;-55
2022/11/02 08:30:51;;;;;;;5.70;0.93;;;;;;;13.76;64.26;99949.25;4997806;28;20048;-53
2022/11/02 08:33:19;;;;;;;6.32;0.70;;;;;;;13.76;65.33;99964.88;4998038;28;20050;-56
2022/11/02 08:35:47;;;;;;;4.05;0.52;;;;;;;13.86;65.16;99968.19;5004637;28;20046;-53
2022/11/02 08:38:14;;;;;;;3.80;0.60;;;;;;;14.10;64.67;99964.28;5006135;28;20517;-54
2022/11/02 08:40:41;;;;;;;6.00;0.65;;;;;;;14.21;64.20;99973.63;5001611;28;20046;-51
2022/11/02 08:43:10;;;;;;;5.18;0.50;;;;;;;14.11;63.66;99976.41;5008133;28;20060;-53
2022/11/02 08:45:40;;;;;;;7.97;1.27;;;;;;;14.02;64.46;99968.78;5006108;28;20375;-53
2022/11/02 08:48:26;;;;;;;7.35;0.90;;;;;;;13.86;64.41;99971.66;5002892;28;20050;-50
2022/11/02 08:50:54;;;;;;;9.25;1.20;;;;;;;13.66;63.99;99968.53;5004806;28;20037;-51
2022/11/02 08:53:21;;;;;;;9.32;1.20;;;;;;;13.47;65.34;99960.97;5006972;28;20517;-52
2022/11/02 08:55:48;;;;;;;6.97;0.95;;;;;;;13.23;65.12;99963.97;5008033;28;20151;-52
2022/11/02 08:58:15;;;;;;;4.53;1.25;;;;;;;13.01;64.90;99963.41;5009190;28;20124;-51
2022/11/02 09:00:41;;;;;;;9.18;0.90;;;;;;;12.79;65.60;99960.22;5003376;28;20088;-56
2022/11/02 09:03:10;;;;;;;7.97;0.80;;;;;;;12.55;66.32;99946.69;5006409;28;20050;-50
2022/11/02 09:05:40;;;;;;;7.72;0.60;;;;;;;12.48;67.17;99953.69;5006308;28;20918;-54
2022/11/02 09:08:11;;;;;;;5.88;0.90;;;;;;;12.46;67.34;99958.91;5007796;28;20059;-56
2022/11/02 09:10:38;;;;;;;7.93;0.90;;;;;;;12.43;67.38;99953.75;5000905;28;20065;-55
2022/11/02 09:13:06;;;;;;;10.15;0.82;;;;;;;12.43;67.47;99955.50;4986849;28;20129;-51
2022/11/02 09:15:36;;;;;;;7.40;0.63;;;;;;;12.67;67.03;99962.09;5004991;28;20123;-54
2022/11/02 09:18:03;;;;;;;5.78;0.93;;;;;;;12.91;67.49;99956.63;5001909;28;20137;-54
2022/11/02 09:20:31;;;;;;;6.63;0.57;;;;;;;13.26;66.94;99960.44;5002247;28;20045;-55
2022/11/02 09:22:58;;;;;;;7.85;1.05;;;;;;;13.78;66.14;99950.09;5003960;28;20050;-53
2022/11/02 09:25:25;;;;;;;8.82;0.75;;;;;;;14.30;65.70;99960.44;5003119;28;20070;-53
2022/11/02 09:27:53;;;;;;;5.88;0.47;;;;;;;14.76;64.68;99948.19;5002246;28;20073;-56
2022/11/02 09:30:23;;;;;;;6.47;0.75;;;;;;;15.37;64.21;99959.03;5006516;28;20069;-57
2022/11/02 09:33:02;;;;;;;7.07;0.80;;;;;;;15.76;62.60;99950.25;5000373;28;20648;-53
2022/11/02 09:35:37;;;;;;;6.45;1.02;;;;;;;16.10;61.60;99954.59;5003307;28;20049;-54
2022/11/02 09:38:04;;;;;;;6.57;0.73;;;;;;;16.62;61.13;99940.09;5005547;28;20085;-56
2022/11/02 09:40:38;;;;;;;4.65;0.90;;;;;;;17.16;60.79;99941.06;5003583;28;20497;-56
2022/11/02 09:46:11;;;;;;;4.78;0.50;;;;;;;18.21;58.13;99927.13;5024327;27;20418;-50
2022/11/02 09:48:42;;;;;;;6.53;1.10;;;;;;;18.64;57.28;99922.03;5015888;28;20144;-58
2022/11/02 09:51:16;;;;;;;5.25;0.60;;;;;;;19.20;57.29;99924.25;5015516;28;20072;-53
2022/11/02 09:56:26;;;;;;;3.83;0.70;;;;;;;19.73;54.31;99911.56;5043533;27;20402;-52
2022/11/02 09:59:02;;;;;;;7.53;0.85;;;;;;;19.84;53.69;99911.97;5022165;28;20065;-53
2022/11/02 10:06:58;;;;;;;6.50;1.70;;;;;;;19.94;51.41;99899.28;5079962;27;20422;-51
2022/11/02 10:09:36;;;;;;;8.90;3.00;;;;;;;19.63;52.78;99898.00;5043768;28;20135;-53
2022/11/02 10:12:13;;;;;;;10.25;2.22;;;;;;;19.40;52.28;99886.69;5037460;28;20076;-52
2022/11/02 10:14:52;;;;;;;6.45;1.55;;;;;;;19.25;52.53;99881.16;5041297;28;20140;-53
2022/11/02 10:17:26;;;;;;;5.45;1.80;;;;;;;19.02;51.77;99880.28;5038708;28;20416;-56
2022/11/02 10:19:56;;;;;;;6.22;2.35;;;;;;;18.69;52.74;99878.13;5050916;28;20122;-57
2022/11/02 10:22:27;;;;;;;8.82;1.85;;;;;;;18.36;53.34;99876.75;5040957;28;20137;-54
2022/11/02 10:24:57;;;;;;;7.57;1.60;;;;;;;17.99;53.40;99878.94;5042277;28;20133;-55
2022/11/02 10:27:27;;;;;;;8.68;1.80;;;;;;;17.59;54.08;99868.13;5040482;28;20135;-56
2022/11/02 10:32:31;;;;;;;7.55;1.45;;;;;;;16.86;55.01;99844.34;5032134;28;20407;-56
2022/11/02 10:35:00;;;;;;;6.95;0.80;;;;;;;16.62;56.38;99845.97;5015040;28;20053;-57
2022/11/02 10:37:58;;;;;;;;;;;;;;;16.25;56.39;99832.28;5016430;28;20050;-54
2022/11/02 10:51:16;;;;;;;10.13;1.60;;;;;;;15.40;58.33;99820.66;5011007;28;20415;-51
2022/11/02 10:53:46;;;;;;;11.90;2.60;;;;;;;14.98;59.76;99814.75;4997388;28;20049;-53
2022/11/02 10:56:17;;;;;;;8.90;1.98;;;;;;;14.84;59.73;99815.09;4999179;28;20125;-53
2022/11/02 11:01:27;;;;;;;10.07;0.90;;;;;;;14.46;61.55;99798.56;5117001;27;20120;-51
2022/11/02 11:03:56;;;;;;;11.07;1.95;;;;;;;14.27;61.46;99804.19;5059004;28;20049;-49
2022/11/02 11:06:42;;;;;;;10.30;1.30;;;;;;;14.25;61.84;99791.19;5056387;28;20171;-53
2022/11/02 11:09:32;;;;;;;7.57;1.02;;;;;;;14.03;62.67;99764.78;5058427;28;20041;-50
2022/11/02 11:12:03;;;;;;;3.83;1.17;;;;;;;14.05;62.48;99762.97;5050786;28;20572;-51
2022/11/02 11:14:38;;;;;;;3.92;0.75;;;;;;;13.94;62.45;99755.41;5055286;28;20135;-51
2022/11/02 11:17:31;;;;;;;8.85;1.40;;;;;;;13.74;63.40;99727.19;5055999;28;20688;-50
2022/11/02 11:20:37;;;;;;;15.02;1.63;;;;;;;13.59;63.52;99725.78;5051811;28;20741;-50
2022/11/02 11:28:50;;;;;;;8.13;0.95;;;;;;;13.43;64.87;99706.97;5052429;28;20973;-53
2022/11/02 11:31:18;;;;;;;6.57;1.30;;;;;;;13.25;64.61;99703.88;5022677;28;20133;-56
2022/11/02 11:36:25;;;;;;;10.40;1.00;;;;;;;13.24;64.67;99704.72;5022613;27;20782;-50
2022/11/02 11:39:00;;;;;;;5.05;1.63;;;;;;;13.19;65.04;99703.97;5016272;28;20601;-50
2022/11/02 11:41:28;;;;;;;4.70;1.92;;;;;;;13.21;64.74;99710.84;5014417;28;20168;-46
2022/11/02 11:43:55;;;;;;;6.95;1.67;;;;;;;13.19;65.23;99699.63;5019041;28;20061;-50
2022/11/02 11:46:22;;;;;;;8.30;1.70;;;;;;;13.20;65.19;99701.34;5018784;28;20095;-54
2022/11/02 11:48:54;;;;;;;13.65;1.65;;;;;;;13.23;65.72;99696.09;5016463;28;20073;-52
2022/11/02 11:51:40;;;;;;;4.97;1.67;;;;;;;13.26;66.18;99694.28;5014858;28;20049;-51
2022/11/02 11:54:28;;;;;;;10.30;1.95;;;;;;;13.29;65.75;99684.72;5008148;28;20135;-50
2022/11/02 11:56:58;;;;;;;6.90;2.10;;;;;;;13.31;65.41;99677.72;5040491;28;20100;-48
2022/11/02 11:59:45;;;;;;;;;;;;;;;13.24;66.77;99681.31;5024605;28;20152;-49
2022/11/02 12:02:32;;;;;;;8.15;1.60;;;;;;;13.32;66.04;99673.38;5020162;28;19921;-50
2022/11/02 12:18:40;;;;;;;8.80;1.27;;;;;;;13.45;66.33;99637.56;5060355;27;20928;-52
2022/11/02 12:35:29;;;;;;;7.63;1.35;;;;;;;13.47;66.00;99609.75;5044316;28;20402;-53
2022/11/02 12:43:49;;;;;;;10.50;0.88;;;;;;;13.45;67.08;99593.34;5048948;28;20401;-53
2022/11/02 12:46:41;;;;;;;7.97;0.70;;;;;;;13.41;67.28;99578.69;5018351;28;20137;-48
2022/11/02 12:49:42;;;;;;;5.47;0.95;;;;;;;13.43;67.02;99567.38;5021130;28;20053;-48
2022/11/02 12:52:25;;;;;;;5.45;0.90;;;;;;;13.43;67.22;99548.28;5016444;28;20506;-51
2022/11/02 12:54:58;;;;;;;8.65;0.80;;;;;;;13.40;67.27;99545.78;5046109;28;20058;-54
2022/11/02 12:57:30;;;;;;;4.25;1.02;;;;;;;13.42;67.34;99564.78;4999464;28;20104;-47
2022/11/02 13:00:01;;;;;;;12.65;1.67;;;;;;;13.48;67.43;99555.13;5016451;28;20649;-49
2022/11/02 13:05:16;;;;;;;15.70;1.98;;;;;;;13.79;66.34;99553.56;5032685;27;20398;-50
2022/11/02 13:10:38;;;;;;;12.35;1.85;;;;;;;13.56;67.36;99534.16;5045307;28;21042;-51
2022/11/02 13:13:12;;;;;;;7.07;1.00;;;;;;;13.57;67.27;99525.44;5013188;28;20545;-51
2022/11/02 13:15:41;;;;;;;9.30;0.47;;;;;;;13.58;66.63;99521.94;5020159;28;20129;-49
2022/11/02 13:18:17;;;;;;;5.47;1.13;;;;;;;13.54;66.53;99520.31;5016110;28;20132;-51
2022/11/02 13:20:49;;;;;;;7.13;0.82;;;;;;;13.57;67.17;99517.66;5015526;28;20133;-52
2022/11/02 13:23:33;;;;;;;12.15;1.02;;;;;;;13.54;66.90;99514.28;5013406;28;20831;-51
2022/11/02 13:26:05;;;;;;;9.95;1.10;;;;;;;13.61;66.10;99497.59;5017766;28;20049;-51
2022/11/02 13:31:22;;;;;;;6.68;0.85;;;;;;;13.53;65.26;99448.38;5056241;28;20411;-50
2022/11/02 13:33:52;;;;;;;9.98;1.80;;;;;;;13.55;64.79;99458.75;5038965;28;20075;-48
2022/11/02 13:36:19;;;;;;;7.88;0.82;;;;;;;13.56;64.58;99448.28;5064305;28;20136;-47
2022/11/02 13:49:38;;;;;;;3.50;0.63;;;;;;;13.58;62.54;99428.28;5034950;28;20405;-50
2022/11/02 13:52:11;;;;;;;9.30;1.27;;;;;;;13.56;62.96;99411.00;5013516;28;20712;-48
2022/11/02 13:54:49;;;;;;;3.40;0.70;;;;;;;13.57;62.82;99418.78;5043399;28;20081;-51
2022/11/02 13:57:39;;;;;;;4.50;1.30;;;;;;;13.57;63.12;99399.69;5017574;28;20053;-50
2022/11/02 14:00:28;;;;;;;7.07;1.30;;;;;;;13.60;62.84;99392.69;5015481;28;20144;-48
2022/11/02 14:03:02;;;;;;;10.13;1.45;;;;;;;13.58;62.47;99373.66;5011188;28;20049;-46
2022/11/02 14:05:33;;;;;;;7.13;0.70;;;;;;;13.58;62.58;99363.22;5005126;28;20105;-53
2022/11/02 14:08:05;;;;;;;5.97;0.75;;;;;;;13.60;62.52;99374.47;5014489;28;20069;-50
2022/11/02 14:10:37;;;;;;;5.22;0.82;;;;;;;13.66;63.25;99364.78;5011411;28;20045;-48
2022/11/02 14:13:04;;;;;;;5.60;1.08;;;;;;;13.51;63.12;99346.06;5016445;28;20125;-49
2022/11/02 14:20:45;;;;;;;7.20;2.67;;;;;;;13.53;63.05;99365.13;5042593;27;20414;-49
2022/11/02 14:28:31;;;;;;;8.75;1.58;;;;;;;13.75;63.12;99354.16;5030647;28;20408;-51